createdAt,value
2019-05-22T00:02:33.209Z,0.40
2019-05-22T00:05:09.791Z,0.43
2019-05-22T00:07:38.006Z,0.47
2019-05-22T00:10:07.552Z,0.70
2019-05-22T00:12:46.275Z,0.47
2019-05-22T00:15:04.517Z,1.70
2019-05-22T00:17:32.800Z,0.70
2019-05-22T00:20:00.581Z,0.67
2019-05-22T00:22:32.914Z,0.67
2019-05-22T00:25:01.028Z,0.40
2019-05-22T00:27:30.241Z,0.50
2019-05-22T00:29:59.984Z,0.50
2019-05-22T00:32:29.176Z,0.60
2019-05-22T00:34:56.279Z,0.90
2019-05-22T00:37:23.547Z,0.60
2019-05-22T00:39:51.046Z,0.40
2019-05-22T00:42:20.181Z,0.43
2019-05-22T00:44:48.192Z,0.63
2019-05-22T00:47:16.987Z,0.90
2019-05-22T00:49:47.842Z,0.40
2019-05-22T00:52:38.779Z,0.40
2019-05-22T00:55:24.823Z,0.40
2019-05-22T00:58:13.239Z,0.47
2019-05-22T01:00:49.784Z,0.40
2019-05-22T01:03:20.460Z,1.43
2019-05-22T01:05:48.263Z,0.50
2019-05-22T01:08:16.754Z,0.47
2019-05-22T01:10:50.331Z,0.57
2019-05-22T01:13:20.332Z,0.50
2019-05-22T01:15:47.776Z,0.40
2019-05-22T01:18:16.032Z,0.40
2019-05-22T01:20:45.860Z,0.50
2019-05-22T01:23:17.875Z,0.40
2019-05-22T01:25:45.255Z,0.50
2019-05-22T01:28:33.702Z,0.40
2019-05-22T01:31:20.032Z,0.50
2019-05-22T01:33:52.775Z,0.43
2019-05-22T01:36:25.423Z,0.50
2019-05-22T01:38:57.461Z,0.60
2019-05-22T01:41:27.735Z,1.03
2019-05-22T01:43:56.634Z,0.40
2019-05-22T01:46:24.916Z,0.50
2019-05-22T01:48:55.692Z,1.53
2019-05-22T01:51:24.573Z,0.50
2019-05-22T01:53:53.414Z,0.40
2019-05-22T01:56:20.675Z,1.33
2019-05-22T01:58:50.032Z,0.43
2019-05-22T02:01:21.487Z,0.40
2019-05-22T02:03:50.932Z,0.60
2019-05-22T02:06:22.539Z,0.50
2019-05-22T02:09:02.467Z,0.40
2019-05-22T02:11:32.719Z,0.40
2019-05-22T02:14:11.028Z,0.60
2019-05-22T02:16:55.971Z,0.40
2019-05-22T02:19:13.986Z,1.17
2019-05-22T02:21:42.065Z,28.17
2019-05-22T02:24:11.172Z,27.33
2019-05-22T02:26:41.849Z,23.50
2019-05-22T02:29:10.950Z,26.90
2019-05-22T02:31:40.552Z,22.67
2019-05-22T02:34:08.937Z,25.97
2019-05-22T02:36:38.052Z,24.53
2019-05-22T02:39:09.830Z,28.67
2019-05-22T02:41:45.142Z,28.53
2019-05-22T02:44:13.299Z,22.53
2019-05-22T02:46:40.607Z,20.40
2019-05-22T02:49:09.993Z,23.73
2019-05-22T02:51:37.421Z,22.73
2019-05-22T02:54:06.431Z,23.27
2019-05-22T02:56:35.429Z,21.23
2019-05-22T02:59:06.297Z,21.93
2019-05-22T03:01:34.411Z,24.17
2019-05-22T03:04:04.882Z,18.80
2019-05-22T03:06:45.049Z,21.50
2019-05-22T03:09:22.862Z,20.43
2019-05-22T03:11:57.027Z,18.67
2019-05-22T03:14:26.423Z,20.50
2019-05-22T03:16:57.431Z,21.00
2019-05-22T03:19:38.094Z,23.20
2019-05-22T03:22:19.872Z,20.60
2019-05-22T03:24:46.876Z,20.00
2019-05-22T03:27:19.011Z,21.10
2019-05-22T03:29:53.941Z,25.00
2019-05-22T03:32:21.198Z,24.90
2019-05-22T03:34:48.470Z,20.53
2019-05-22T03:37:15.507Z,25.03
2019-05-22T03:39:44.285Z,26.43
2019-05-22T03:42:13.174Z,24.73
2019-05-22T03:44:41.444Z,22.93
2019-05-22T03:47:10.830Z,28.97
2019-05-22T03:49:38.520Z,21.40
2019-05-22T03:52:06.358Z,24.83
2019-05-22T03:54:35.500Z,23.90
2019-05-22T03:57:03.435Z,23.83
2019-05-22T03:59:31.504Z,22.00
2019-05-22T04:01:59.019Z,22.30
2019-05-22T04:04:35.624Z,21.13
2019-05-22T04:07:05.908Z,21.87
2019-05-22T04:09:33.855Z,21.27
2019-05-22T04:12:03.563Z,17.43
2019-05-22T04:14:35.209Z,18.90
2019-05-22T04:17:03.289Z,17.97
2019-05-22T04:19:47.462Z,16.30
2019-05-22T04:22:00.010Z,16.90
2019-05-22T04:24:28.035Z,18.00
2019-05-22T04:26:56.306Z,18.43
2019-05-22T04:29:24.793Z,16.10
2019-05-22T04:32:06.295Z,17.23
2019-05-22T04:34:33.671Z,17.77
2019-05-22T04:37:01.342Z,17.63
2019-05-22T04:39:31.641Z,17.20
2019-05-22T04:42:00.220Z,16.63
2019-05-22T04:44:27.694Z,19.90
2019-05-22T04:46:54.992Z,20.70
2019-05-22T04:49:21.851Z,20.10
2019-05-22T04:51:50.759Z,19.37
2019-05-22T04:54:17.743Z,22.20
2019-05-22T04:56:45.920Z,20.83
2019-05-22T04:59:14.378Z,27.90
2019-05-22T05:01:42.388Z,22.40
2019-05-22T05:04:10.276Z,22.63
2019-05-22T05:06:38.866Z,28.10
2019-05-22T05:09:08.711Z,23.40
2019-05-22T05:11:36.363Z,22.17
2019-05-22T05:14:03.839Z,22.40
2019-05-22T05:16:31.209Z,24.80
2019-05-22T05:18:58.449Z,23.57
2019-05-22T05:21:26.075Z,21.80
2019-05-22T05:23:53.564Z,24.17
2019-05-22T05:26:22.115Z,22.63
2019-05-22T05:28:50.052Z,25.77
2019-05-22T05:31:18.599Z,22.53
2019-05-22T05:34:01.360Z,22.73
2019-05-22T05:36:28.654Z,21.70
2019-05-22T05:38:56.694Z,21.90
2019-05-22T05:41:23.642Z,19.47
2019-05-22T05:43:51.321Z,22.43
2019-05-22T05:46:18.983Z,22.60
2019-05-22T05:48:47.091Z,20.60
2019-05-22T05:51:24.856Z,24.53
2019-05-22T05:54:00.813Z,24.27
2019-05-22T05:56:29.715Z,21.67
2019-05-22T05:58:57.953Z,18.07
2019-05-22T06:01:41.142Z,21.97
2019-05-22T06:04:10.455Z,21.40
2019-05-22T06:07:10.677Z,17.60
2019-05-22T06:09:39.671Z,20.13
2019-05-22T06:12:08.676Z,18.47
2019-05-22T06:14:38.032Z,18.40
2019-05-22T06:17:56.728Z,18.60
2019-05-22T06:20:26.806Z,19.87
2019-05-22T06:23:49.632Z,17.60
2019-05-22T06:27:01.973Z,17.50
2019-05-22T06:29:42.787Z,17.47
2019-05-22T06:32:58.333Z,16.03
2019-05-22T06:35:31.081Z,14.73
2019-05-22T06:38:09.643Z,16.97
2019-05-22T06:40:37.199Z,17.80
2019-05-22T06:43:58.692Z,14.60
2019-05-22T06:46:51.291Z,13.13
2019-05-22T06:49:44.638Z,12.37
2019-05-22T06:52:14.996Z,10.70
2019-05-22T06:54:43.000Z,11.77
2019-05-22T06:57:14.472Z,11.00
2019-05-22T06:59:44.182Z,11.17
2019-05-22T07:02:15.395Z,9.10
2019-05-22T07:04:46.570Z,10.70
2019-05-22T07:07:14.765Z,9.47
2019-05-22T07:09:44.217Z,9.77
2019-05-22T07:12:14.380Z,10.30
2019-05-22T07:15:17.671Z,9.60
2019-05-22T07:17:45.852Z,9.10
2019-05-22T07:20:14.784Z,9.77
2019-05-22T07:22:43.181Z,8.97
2019-05-22T07:25:11.324Z,9.70
2019-05-22T07:27:39.158Z,8.07
2019-05-22T07:30:08.895Z,8.77
2019-05-22T07:32:36.496Z,9.83
2019-05-22T07:35:04.847Z,9.90
2019-05-22T07:37:34.585Z,10.53
2019-05-22T07:40:02.640Z,10.10
2019-05-22T07:42:29.936Z,9.20
2019-05-22T07:44:57.149Z,9.23
2019-05-22T07:47:25.391Z,8.00
2019-05-22T07:49:53.015Z,10.00
2019-05-22T07:52:20.097Z,8.80
2019-05-22T07:54:48.081Z,8.70
2019-05-22T07:57:20.205Z,8.30
2019-05-22T08:00:09.335Z,8.40
2019-05-22T08:02:42.772Z,8.20
2019-05-22T08:05:10.462Z,8.10
2019-05-22T08:07:39.873Z,7.87
2019-05-22T08:10:12.405Z,9.50
2019-05-22T08:12:41.091Z,7.57
2019-05-22T08:15:09.155Z,7.67
2019-05-22T08:17:38.333Z,8.20
2019-05-22T08:20:06.583Z,8.63
2019-05-22T08:22:34.418Z,7.20
2019-05-22T08:25:05.235Z,7.70
2019-05-22T08:27:33.003Z,7.97
2019-05-22T08:30:00.886Z,8.37
2019-05-22T08:32:29.415Z,7.07
2019-05-22T08:34:56.662Z,6.67
2019-05-22T08:37:28.914Z,6.27
2019-05-22T08:39:57.364Z,7.13
2019-05-22T08:42:25.382Z,4.63
2019-05-22T08:44:53.384Z,5.07
2019-05-22T08:47:21.713Z,4.63
2019-05-22T08:49:50.488Z,5.13
2019-05-22T08:52:23.705Z,5.20
2019-05-22T08:54:48.767Z,4.70
2019-05-22T08:57:21.043Z,3.87
2019-05-22T08:59:48.507Z,4.63
2019-05-22T09:02:17.818Z,3.90
2019-05-22T09:04:45.009Z,4.27
2019-05-22T09:07:12.502Z,5.33
2019-05-22T09:09:39.700Z,3.90
2019-05-22T09:12:08.456Z,4.03
2019-05-22T09:14:35.769Z,3.20
2019-05-22T09:17:05.168Z,3.13
2019-05-22T09:19:32.302Z,3.80
2019-05-22T09:22:00.342Z,3.57
2019-05-22T09:24:28.271Z,3.03
2019-05-22T09:26:55.844Z,3.10
2019-05-22T09:29:23.549Z,3.83
2019-05-22T09:31:51.440Z,4.30
2019-05-22T09:34:18.861Z,4.33
2019-05-22T09:36:46.265Z,4.30
2019-05-22T09:39:15.144Z,4.40
2019-05-22T09:41:42.846Z,5.60
2019-05-22T09:44:10.068Z,6.33
2019-05-22T09:46:37.577Z,5.23
2019-05-22T09:49:06.083Z,5.03
2019-05-22T09:51:33.672Z,5.97
2019-05-22T09:54:01.383Z,5.90
2019-05-22T09:56:28.564Z,8.30
2019-05-22T09:58:56.073Z,6.97
2019-05-22T10:01:23.432Z,8.73
2019-05-22T10:03:51.486Z,8.30
2019-05-22T10:06:21.633Z,8.30
2019-05-22T10:08:48.676Z,7.57
2019-05-22T10:11:16.531Z,8.40
2019-05-22T10:13:44.159Z,7.47
2019-05-22T10:16:12.169Z,9.03
2019-05-22T10:18:39.861Z,8.70
2019-05-22T10:21:07.888Z,8.80
2019-05-22T10:23:35.158Z,9.13
2019-05-22T10:26:03.921Z,8.60
2019-05-22T10:28:31.692Z,8.43
2019-05-22T10:30:59.567Z,10.30
2019-05-22T10:33:28.324Z,9.57
2019-05-22T10:35:56.443Z,9.73
2019-05-22T10:38:23.637Z,10.10
2019-05-22T10:40:51.009Z,9.70
2019-05-22T10:43:18.742Z,8.77
2019-05-22T10:45:46.440Z,9.40
2019-05-22T10:48:14.347Z,9.23
2019-05-22T10:50:41.439Z,11.37
2019-05-22T10:53:09.318Z,10.20
2019-05-22T10:55:37.149Z,12.00
2019-05-22T10:58:05.882Z,10.93
2019-05-22T11:00:33.784Z,11.03
2019-05-22T11:03:05.546Z,10.47
2019-05-22T11:05:33.916Z,11.00
2019-05-22T11:08:01.469Z,7.73
2019-05-22T11:10:29.410Z,11.40
2019-05-22T11:12:57.347Z,10.57
2019-05-22T11:15:25.514Z,11.00
2019-05-22T11:17:53.808Z,11.40
2019-05-22T11:20:22.986Z,11.07
2019-05-22T11:22:50.775Z,10.30
2019-05-22T11:25:18.466Z,9.60
2019-05-22T11:27:45.789Z,13.90
2019-05-22T11:30:14.695Z,10.63
2019-05-22T11:32:41.896Z,10.57
2019-05-22T11:35:09.689Z,10.13
2019-05-22T11:37:37.714Z,9.83
2019-05-22T11:40:07.035Z,10.90
2019-05-22T11:42:34.331Z,10.00
2019-05-22T11:45:01.700Z,9.10
2019-05-22T11:47:31.193Z,9.33
2019-05-22T11:49:59.934Z,10.20
2019-05-22T11:52:28.298Z,10.47
2019-05-22T11:54:55.616Z,11.67
2019-05-22T11:57:23.827Z,9.60
2019-05-22T11:59:53.470Z,9.00
2019-05-22T12:02:24.426Z,10.90
2019-05-22T12:04:52.927Z,10.20
2019-05-22T12:07:20.651Z,9.93
2019-05-22T12:09:49.433Z,9.03
2019-05-22T12:12:18.292Z,11.63
2019-05-22T12:14:46.053Z,9.67
2019-05-22T12:17:15.146Z,9.80
2019-05-22T12:19:42.521Z,9.13
2019-05-22T12:22:10.110Z,10.50
2019-05-22T12:24:37.898Z,9.70
2019-05-22T12:27:06.443Z,7.97
2019-05-22T12:29:34.815Z,10.27
2019-05-22T12:32:02.841Z,10.67
2019-05-22T12:34:30.262Z,9.57
2019-05-22T12:36:58.602Z,10.33
2019-05-22T12:39:27.216Z,11.57
2019-05-22T12:41:56.880Z,10.80
2019-05-22T12:44:24.720Z,9.77
2019-05-22T12:46:52.432Z,11.03
2019-05-22T12:49:19.730Z,10.70
2019-05-22T12:51:49.823Z,9.80
2019-05-22T12:54:21.007Z,9.80
2019-05-22T12:56:48.926Z,11.73
2019-05-22T12:59:16.562Z,11.77
2019-05-22T13:01:46.694Z,9.57
2019-05-22T13:04:16.019Z,9.23
2019-05-22T13:06:44.886Z,9.87
2019-05-22T13:09:12.585Z,10.83
2019-05-22T13:11:41.307Z,10.13
2019-05-22T13:14:09.634Z,10.40
2019-05-22T13:16:37.827Z,10.20
2019-05-22T13:19:06.296Z,9.50
2019-05-22T13:21:40.963Z,10.60
2019-05-22T13:24:21.400Z,9.97
2019-05-22T13:26:50.581Z,10.33
2019-05-22T13:29:22.504Z,12.37
2019-05-22T13:31:51.953Z,12.00
2019-05-22T13:34:23.600Z,10.30
2019-05-22T13:36:52.037Z,10.67
2019-05-22T13:39:21.744Z,10.93
2019-05-22T13:41:49.531Z,9.40
2019-05-22T13:44:17.930Z,11.27
2019-05-22T13:46:45.563Z,10.63
2019-05-22T13:49:14.090Z,11.83
2019-05-22T13:51:41.817Z,11.37
2019-05-22T13:54:09.869Z,11.97
2019-05-22T13:56:37.889Z,10.87
2019-05-22T13:59:06.816Z,11.50
2019-05-22T14:01:34.294Z,11.40
2019-05-22T14:04:02.832Z,12.03
2019-05-22T14:06:30.276Z,11.73
2019-05-22T14:09:02.608Z,13.00
2019-05-22T14:11:31.454Z,12.83
2019-05-22T14:13:59.155Z,13.40
2019-05-22T14:16:26.414Z,12.63
2019-05-22T14:18:53.997Z,13.03
2019-05-22T14:21:21.248Z,13.27
2019-05-22T14:23:48.704Z,10.90
2019-05-22T14:26:16.319Z,9.77
2019-05-22T14:28:44.270Z,10.60
2019-05-22T14:31:11.885Z,11.43
2019-05-22T14:33:40.792Z,12.60
2019-05-22T14:36:09.567Z,10.90
2019-05-22T14:38:36.915Z,11.90
2019-05-22T14:41:19.138Z,12.13
2019-05-22T14:43:47.057Z,12.20
2019-05-22T14:46:14.245Z,12.60
2019-05-22T14:48:41.487Z,11.67
2019-05-22T14:51:09.152Z,10.10
2019-05-22T14:53:37.584Z,12.63
2019-05-22T14:56:05.129Z,11.20
2019-05-22T14:58:34.493Z,12.60
2019-05-22T15:01:02.968Z,11.10
2019-05-22T15:03:30.808Z,12.40
2019-05-22T15:05:58.633Z,13.30
2019-05-22T15:08:26.318Z,12.07
2019-05-22T15:10:54.307Z,12.20
2019-05-22T15:13:22.501Z,12.57
2019-05-22T15:15:53.235Z,14.17
2019-05-22T15:18:24.192Z,11.80
2019-05-22T15:21:00.999Z,11.30
2019-05-22T15:23:33.214Z,13.83
2019-05-22T15:26:01.619Z,11.63
2019-05-22T15:28:48.589Z,11.07
2019-05-22T15:31:17.020Z,12.27
2019-05-22T15:33:46.806Z,11.73
2019-05-22T15:36:25.753Z,12.30
2019-05-22T15:38:53.981Z,11.87
2019-05-22T15:41:23.223Z,10.53
2019-05-22T15:43:55.798Z,9.97
2019-05-22T15:46:31.869Z,10.77
2019-05-22T15:49:18.404Z,8.40
2019-05-22T15:51:50.064Z,9.57
2019-05-22T15:54:38.394Z,9.47
2019-05-22T15:57:10.813Z,9.73
2019-05-22T15:59:49.611Z,9.53
2019-05-22T16:02:32.760Z,9.40
2019-05-22T16:05:09.125Z,8.07
2019-05-22T16:10:34.779Z,8.10
2019-05-22T16:13:03.718Z,8.20
2019-05-22T16:15:32.769Z,8.00
2019-05-22T16:18:10.997Z,7.40
2019-05-22T16:20:31.631Z,6.83
2019-05-22T16:22:59.301Z,7.27
2019-05-22T16:25:28.140Z,6.90
2019-05-22T16:27:55.595Z,8.17
2019-05-22T16:30:23.631Z,7.23
2019-05-22T16:32:52.904Z,6.97
2019-05-22T16:35:20.079Z,7.27
2019-05-22T16:37:47.705Z,7.90
2019-05-22T16:40:15.535Z,7.07
2019-05-22T16:42:42.982Z,6.73
2019-05-22T16:45:10.558Z,8.10
2019-05-22T16:47:37.859Z,7.80
2019-05-22T16:50:06.423Z,7.20
2019-05-22T16:52:37.189Z,8.07
2019-05-22T16:55:06.408Z,6.60
2019-05-22T16:57:33.728Z,7.00
2019-05-22T17:00:01.605Z,7.00
2019-05-22T17:02:30.057Z,7.17
2019-05-22T17:04:57.806Z,7.93
2019-05-22T17:07:28.143Z,7.40
2019-05-22T17:09:54.447Z,6.90
2019-05-22T17:12:22.702Z,6.87
2019-05-22T17:14:51.161Z,7.50
2019-05-22T17:17:18.415Z,7.50
2019-05-22T17:19:47.059Z,7.23
2019-05-22T17:22:15.493Z,7.37
2019-05-22T17:24:43.580Z,7.90
2019-05-22T17:27:14.019Z,7.27
2019-05-22T17:29:49.821Z,8.57
2019-05-22T17:32:17.363Z,7.50
2019-05-22T17:34:44.495Z,7.60
2019-05-22T17:37:15.123Z,8.10
2019-05-22T17:39:45.888Z,7.50
2019-05-22T17:42:15.449Z,7.70
2019-05-22T17:44:47.033Z,9.43
2019-05-22T17:47:15.692Z,7.70
2019-05-22T17:49:43.672Z,7.17
2019-05-22T17:52:13.067Z,7.27
2019-05-22T17:54:41.642Z,7.80
2019-05-22T17:57:09.884Z,7.10
2019-05-22T17:59:37.792Z,6.73
2019-05-22T18:02:07.644Z,7.10
2019-05-22T18:04:35.409Z,7.80
2019-05-22T18:07:03.829Z,6.73
2019-05-22T18:09:31.402Z,7.67
2019-05-22T18:11:59.292Z,6.83
2019-05-22T18:14:27.634Z,7.23
2019-05-22T18:16:54.998Z,7.40
2019-05-22T18:19:22.546Z,8.30
2019-05-22T18:21:50.254Z,6.70
2019-05-22T18:24:18.074Z,6.97
2019-05-22T18:26:45.080Z,7.20
2019-05-22T18:29:12.822Z,7.73
2019-05-22T18:31:40.227Z,8.83
2019-05-22T18:34:07.988Z,7.97
2019-05-22T18:36:36.528Z,8.37
2019-05-22T18:39:06.040Z,7.50
2019-05-22T18:41:33.528Z,7.80
2019-05-22T18:44:01.133Z,6.53
2019-05-22T18:46:28.184Z,7.47
2019-05-22T18:48:55.679Z,7.03
2019-05-22T18:51:23.181Z,7.47
2019-05-22T18:53:50.624Z,7.10
2019-05-22T18:56:17.853Z,7.60
2019-05-22T18:58:45.729Z,8.20
2019-05-22T19:01:16.227Z,7.50
2019-05-22T19:03:42.334Z,9.53
2019-05-22T19:06:10.858Z,9.50
2019-05-22T19:08:38.017Z,9.50
2019-05-22T19:11:05.580Z,8.17
2019-05-22T19:13:32.811Z,7.90
2019-05-22T19:16:00.283Z,8.73
2019-05-22T19:18:27.688Z,9.07
2019-05-22T19:20:54.810Z,8.93
2019-05-22T19:23:21.989Z,10.43
2019-05-22T19:25:51.552Z,11.50
2019-05-22T19:28:18.909Z,10.53
2019-05-22T19:30:47.085Z,10.43
2019-05-22T19:33:16.293Z,10.80
2019-05-22T19:35:44.077Z,10.83
2019-05-22T19:38:11.927Z,13.40
2019-05-22T19:40:39.233Z,12.57
2019-05-22T19:43:07.028Z,12.30
2019-05-22T19:45:35.016Z,14.90
2019-05-22T19:48:02.173Z,10.63
2019-05-22T19:50:30.628Z,10.57
2019-05-22T19:52:58.276Z,11.37
2019-05-22T19:55:28.639Z,11.50
2019-05-22T19:57:56.482Z,12.53
2019-05-22T20:00:24.624Z,11.47
2019-05-22T20:02:53.097Z,10.97
2019-05-22T20:05:20.997Z,12.30
2019-05-22T20:07:48.571Z,11.33
2019-05-22T20:10:18.240Z,11.37
2019-05-22T20:12:45.928Z,11.70
2019-05-22T20:15:14.450Z,12.80
2019-05-22T20:17:43.401Z,13.00
2019-05-22T20:20:12.068Z,13.10
2019-05-22T20:22:40.230Z,11.90
2019-05-22T20:25:08.975Z,12.20
2019-05-22T20:27:37.955Z,13.00
2019-05-22T20:30:07.908Z,11.90
2019-05-22T20:32:36.765Z,12.37
2019-05-22T20:35:05.192Z,12.13
2019-05-22T20:37:34.053Z,13.03
2019-05-22T20:40:01.788Z,13.27
2019-05-22T20:42:31.273Z,12.37
2019-05-22T20:44:58.638Z,12.80
2019-05-22T20:47:26.253Z,11.47
2019-05-22T20:49:54.220Z,13.27
2019-05-22T20:52:22.243Z,12.77
2019-05-22T20:54:51.149Z,12.77
2019-05-22T20:57:20.265Z,11.53
2019-05-22T20:59:49.585Z,13.37
2019-05-22T21:02:17.896Z,11.83
2019-05-22T21:04:45.596Z,12.00
2019-05-22T21:07:16.330Z,12.37
2019-05-22T21:09:44.172Z,13.17
2019-05-22T21:12:13.258Z,12.03
2019-05-22T21:14:41.284Z,12.60
2019-05-22T21:17:09.129Z,12.80
2019-05-22T21:19:36.943Z,12.70
2019-05-22T21:22:04.460Z,13.30
2019-05-22T21:24:35.974Z,11.70
2019-05-22T21:27:01.708Z,13.47
2019-05-22T21:29:30.223Z,13.63
2019-05-22T21:31:59.512Z,11.33
2019-05-22T21:34:26.713Z,12.70
2019-05-22T21:36:54.494Z,13.07
2019-05-22T21:39:23.067Z,13.47
2019-05-22T21:41:50.954Z,16.90
2019-05-22T21:44:18.634Z,12.10
2019-05-22T21:46:46.032Z,12.70
2019-05-22T21:49:14.988Z,13.63
2019-05-22T21:51:42.806Z,12.73
2019-05-22T21:54:11.368Z,14.07
2019-05-22T21:56:39.663Z,13.50
2019-05-22T21:59:09.097Z,15.80
2019-05-22T22:01:54.109Z,12.53
2019-05-22T22:04:26.814Z,16.43
2019-05-22T22:06:54.561Z,14.37
2019-05-22T22:09:21.949Z,13.93
2019-05-22T22:11:50.318Z,13.10
2019-05-22T22:14:18.593Z,12.67
2019-05-22T22:16:46.364Z,13.37
2019-05-22T22:19:16.223Z,12.40
2019-05-22T22:21:44.255Z,12.43
2019-05-22T22:24:11.878Z,12.37
2019-05-22T22:26:39.342Z,14.40
2019-05-22T22:29:07.472Z,12.13
2019-05-22T22:31:35.862Z,16.10
2019-05-22T22:34:12.658Z,13.03
2019-05-22T22:36:40.512Z,13.37
2019-05-22T22:39:11.191Z,13.13
2019-05-22T22:41:40.561Z,13.77
2019-05-22T22:44:09.592Z,11.50
2019-05-22T22:46:45.444Z,11.87
2019-05-22T22:49:16.642Z,13.77
2019-05-22T22:51:46.810Z,14.10
2019-05-22T22:54:14.625Z,13.70
2019-05-22T22:56:43.344Z,15.77
2019-05-22T22:59:11.066Z,14.33
2019-05-22T23:01:40.583Z,12.67
2019-05-22T23:04:09.785Z,13.33
2019-05-22T23:06:38.270Z,12.33
2019-05-22T23:09:07.616Z,13.00
2019-05-22T23:11:37.035Z,14.07
2019-05-22T23:14:05.037Z,12.50
2019-05-22T23:16:32.157Z,14.57
2019-05-22T23:19:35.260Z,16.60
2019-05-22T23:22:04.995Z,15.27
2019-05-22T23:24:35.006Z,16.50
2019-05-22T23:27:03.234Z,15.60
2019-05-22T23:29:32.134Z,14.03
2019-05-22T23:32:02.161Z,15.70
2019-05-22T23:34:30.172Z,16.43
2019-05-22T23:36:59.184Z,18.40
2019-05-22T23:39:28.888Z,18.63
2019-05-22T23:42:00.367Z,13.00
2019-05-22T23:44:28.305Z,16.07
2019-05-22T23:46:56.434Z,18.87
2019-05-22T23:49:23.596Z,17.30
2019-05-22T23:51:50.930Z,16.40
2019-05-22T23:54:19.834Z,17.50
2019-05-22T23:56:48.909Z,13.87
2019-05-22T23:59:16.710Z,15.50
